sensor_id;sensor_type;location;lat;lon;timestamp;pressure;altitude;pressure_sealevel;temperature;humidity
9521;BME280;4798;41.574;23.734;2022-10-12T00:00:59;95877.38;;;16.81;100.00
9521;BME280;4798;41.574;23.734;2022-10-12T00:03:28;95877.84;;;16.83;100.00
9521;BME280;4798;41.574;23.734;2022-10-12T00:06:01;95880.94;;;16.90;100.00
9521;BME280;4798;41.574;23.734;2022-10-12T00:08:31;95880.63;;;16.78;100.00
9521;BME280;4798;41.574;23.734;2022-10-12T00:11:01;95878.66;;;16.51;100.00
9521;BME280;4798;41.574;23.734;2022-10-12T00:13:29;95878.38;;;16.53;100.00
9521;BME280;4798;41.574;23.734;2022-10-12T00:16:01;95869.34;;;16.81;100.00
9521;BME280;4798;41.574;23.734;2022-10-12T00:18:30;95875.28;;;16.78;100.00
9521;BME280;4798;41.574;23.734;2022-10-12T00:21:02;95865.72;;;16.72;100.00
9521;BME280;4798;41.574;23.734;2022-10-12T00:23:33;95869.41;;;16.76;100.00
9521;BME280;4798;41.574;23.734;2022-10-12T00:26:04;95870.22;;;16.90;100.00
9521;BME280;4798;41.574;23.734;2022-10-12T00:28:33;95866.16;;;16.79;100.00
9521;BME280;4798;41.574;23.734;2022-10-12T00:31:06;95869.47;;;16.58;100.00
9521;BME280;4798;41.574;23.734;2022-10-12T00:33:34;95864.41;;;16.37;100.00
9521;BME280;4798;41.574;23.734;2022-10-12T00:36:13;95860.09;;;16.04;100.00
9521;BME280;4798;41.574;23.734;2022-10-12T00:38:43;95855.38;;;16.33;100.00
9521;BME280;4798;41.574;23.734;2022-10-12T00:41:12;95863.13;;;16.54;100.00
9521;BME280;4798;41.574;23.734;2022-10-12T00:43:42;95869.00;;;16.69;100.00
9521;BME280;4798;41.574;23.734;2022-10-12T00:46:15;95863.19;;;16.81;100.00
9521;BME280;4798;41.574;23.734;2022-10-12T00:48:46;95695.63;;;15.74;100.00
9521;BME280;4798;41.574;23.734;2022-10-12T00:51:15;95855.19;;;16.94;100.00
9521;BME280;4798;41.574;23.734;2022-10-12T00:53:51;95835.41;;;16.77;100.00
9521;BME280;4798;41.574;23.734;2022-10-12T00:56:23;95861.63;;;16.93;100.00
9521;BME280;4798;41.574;23.734;2022-10-12T00:58:53;95860.81;;;16.79;100.00
9521;BME280;4798;41.574;23.734;2022-10-12T01:01:22;95861.31;;;16.81;100.00
9521;BME280;4798;41.574;23.734;2022-10-12T01:03:50;95864.56;;;16.46;100.00
9521;BME280;4798;41.574;23.734;2022-10-12T01:06:19;95867.06;;;16.05;100.00
9521;BME280;4798;41.574;23.734;2022-10-12T01:08:49;95823.47;;;16.05;100.00
9521;BME280;4798;41.574;23.734;2022-10-12T01:11:17;95862.56;;;16.70;100.00
9521;BME280;4798;41.574;23.734;2022-10-12T01:13:46;95865.13;;;16.62;100.00
9521;BME280;4798;41.574;23.734;2022-10-12T01:16:17;95863.75;;;16.64;100.00
9521;BME280;4798;41.574;23.734;2022-10-12T01:18:52;95856.03;;;16.76;100.00
9521;BME280;4798;41.574;23.734;2022-10-12T01:21:23;95861.28;;;16.49;100.00
9521;BME280;4798;41.574;23.734;2022-10-12T01:24:17;95862.56;;;16.70;100.00
9521;BME280;4798;41.574;23.734;2022-10-12T01:27:17;95853.09;;;16.91;100.00
9521;BME280;4798;41.574;23.734;2022-10-12T01:30:13;95859.41;;;16.82;100.00
9521;BME280;4798;41.574;23.734;2022-10-12T01:33:05;95864.53;;;16.65;100.00
9521;BME280;4798;41.574;23.734;2022-10-12T01:35:43;95860.94;;;16.37;100.00
9521;BME280;4798;41.574;23.734;2022-10-12T01:38:23;95856.56;;;15.71;100.00
9521;BME280;4798;41.574;23.734;2022-10-12T01:40:58;95862.72;;;15.72;100.00
9521;BME280;4798;41.574;23.734;2022-10-12T01:43:33;95862.06;;;15.80;100.00
9521;BME280;4798;41.574;23.734;2022-10-12T01:49:05;95766.72;;;15.75;100.00
9521;BME280;4798;41.574;23.734;2022-10-12T01:51:39;95858.03;;;16.52;
9521;BME280;4798;41.574;23.734;2022-10-12T01:54:23;95859.13;;;16.51;100.00
9521;BME280;4798;41.574;23.734;2022-10-12T01:56:57;95860.75;;;16.66;100.00
9521;BME280;4798;41.574;23.734;2022-10-12T01:59:38;95860.19;;;16.69;100.00
9521;BME280;4798;41.574;23.734;2022-10-12T02:02:16;95859.78;;;16.62;100.00
9521;BME280;4798;41.574;23.734;2022-10-12T02:04:50;95856.03;;;16.76;100.00
9521;BME280;4798;41.574;23.734;2022-10-12T02:07:21;95861.16;;;16.73;100.00
9521;BME280;4798;41.574;23.734;2022-10-12T02:09:55;95862.00;;;16.55;100.00
9521;BME280;4798;41.574;23.734;2022-10-12T02:12:27;95862.78;;;16.74;100.00
9521;BME280;4798;41.574;23.734;2022-10-12T02:14:58;95852.25;;;16.64;100.00
9521;BME280;4798;41.574;23.734;2022-10-12T02:17:29;95866.44;;;16.78;100.00
9521;BME280;4798;41.574;23.734;2022-10-12T02:20:00;95863.41;;;16.98;100.00
9521;BME280;4798;41.574;23.734;2022-10-12T02:22:34;95861.72;;;17.02;100.00
9521;BME280;4798;41.574;23.734;2022-10-12T02:25:07;95870.50;;;16.75;100.00
9521;BME280;4798;41.574;23.734;2022-10-12T02:27:39;95875.34;;;16.73;100.00
9521;BME280;4798;41.574;23.734;2022-10-12T02:30:10;95865.78;;;16.54;100.00
9521;BME280;4798;41.574;23.734;2022-10-12T02:32:45;95879.50;;;16.47;100.00
9521;BME280;4798;41.574;23.734;2022-10-12T02:35:22;95875.84;;;16.43;100.00
9521;BME280;4798;41.574;23.734;2022-10-12T02:37:55;95868.78;;;16.47;100.00
9521;BME280;4798;41.574;23.734;2022-10-12T02:40:32;95874.56;;;16.03;100.00
9521;BME280;4798;41.574;23.734;2022-10-12T02:43:05;95948.88;;;16.06;100.00
9521;BME280;4798;41.574;23.734;2022-10-12T02:45:40;95870.66;;;16.33;100.00
9521;BME280;4798;41.574;23.734;2022-10-12T02:48:12;95862.72;;;16.60;100.00
9521;BME280;4798;41.574;23.734;2022-10-12T02:50:44;95866.63;;;16.68;100.00
9521;BME280;4798;41.574;23.734;2022-10-12T02:53:14;95855.41;;;16.66;100.00
9521;BME280;4798;41.574;23.734;2022-10-12T02:55:47;95861.16;;;16.73;100.00
9521;BME280;4798;41.574;23.734;2022-10-12T02:58:17;95866.84;;;16.71;100.00
9521;BME280;4798;41.574;23.734;2022-10-12T03:00:45;95860.00;;;16.79;100.00
9521;BME280;4798;41.574;23.734;2022-10-12T03:03:14;95863.00;;;16.91;100.00
9521;BME280;4798;41.574;23.734;2022-10-12T03:05:44;95856.44;;;16.83;100.00
9521;BME280;4798;41.574;23.734;2022-10-12T03:08:12;95827.00;;;16.19;100.00
9521;BME280;4798;41.574;23.734;2022-10-12T03:10:41;95671.50;;;14.68;100.00
9521;BME280;4798;41.574;23.734;2022-10-12T03:13:09;95850.09;;;15.96;100.00
9521;BME280;4798;41.574;23.734;2022-10-12T03:15:37;95857.84;;;16.30;100.00
9521;BME280;4798;41.574;23.734;2022-10-12T03:18:06;95855.81;;;16.22;100.00
9521;BME280;4798;41.574;23.734;2022-10-12T03:20:34;95853.69;;;16.24;100.00
9521;BME280;4798;41.574;23.734;2022-10-12T03:23:04;95856.28;;;15.92;100.00
9521;BME280;4798;41.574;23.734;2022-10-12T03:25:32;95855.97;;;16.12;100.00
9521;BME280;4798;41.574;23.734;2022-10-12T03:28:00;95846.66;;;16.28;100.00
9521;BME280;4798;41.574;23.734;2022-10-12T03:30:28;95827.28;;;16.17;100.00
9521;BME280;4798;41.574;23.734;2022-10-12T03:32:57;95861.06;;;16.45;100.00
9521;BME280;4798;41.574;23.734;2022-10-12T03:35:25;95848.28;;;16.61;100.00
9521;BME280;4798;41.574;23.734;2022-10-12T03:37:53;95860.75;;;16.66;100.00
9521;BME280;4798;41.574;23.734;2022-10-12T03:40:23;95859.38;;;16.49;100.00
9521;BME280;4798;41.574;23.734;2022-10-12T03:42:52;95853.91;;;15.90;100.00
9521;BME280;4798;41.574;23.734;2022-10-12T03:45:20;95865.75;;;15.65;100.00
9521;BME280;4798;41.574;23.734;2022-10-12T03:47:48;95850.47;;;15.47;100.00
9521;BME280;4798;41.574;23.734;2022-10-12T03:50:17;95858.38;;;15.57;100.00
9521;BME280;4798;41.574;23.734;2022-10-12T03:52:45;95858.66;;;15.74;100.00
9521;BME280;4798;41.574;23.734;2022-10-12T03:55:13;95866.25;;;15.67;100.00
9521;BME280;4798;41.574;23.734;2022-10-12T03:57:43;95857.09;;;15.92;100.00
9521;BME280;4798;41.574;23.734;2022-10-12T04:00:13;95866.69;;;16.12;100.00
9521;BME280;4798;41.574;23.734;2022-10-12T04:02:41;95865.97;;;16.06;100.00
9521;BME280;4798;41.574;23.734;2022-10-12T04:05:09;95743.75;;;15.37;100.00
9521;BME280;4798;41.574;23.734;2022-10-12T04:07:38;95861.00;;;16.32;100.00
9521;BME280;4798;41.574;23.734;2022-10-12T04:10:07;95860.25;;;16.31;100.00
9521;BME280;4798;41.574;23.734;2022-10-12T04:12:35;95852.47;;;16.16;100.00
9521;BME280;4798;41.574;23.734;2022-10-12T04:15:06;95859.41;;;15.99;100.00
9521;BME280;4798;41.574;23.734;2022-10-12T04:17:35;95848.84;;;16.07;100.00
9521;BME280;4798;41.574;23.734;2022-10-12T04:20:05;95859.28;;;16.22;100.00
9521;BME280;4798;41.574;23.734;2022-10-12T04:22:33;95862.94;;;16.13;100.00
9521;BME280;4798;41.574;23.734;2022-10-12T04:25:02;95856.28;;;16.10;100.00
9521;BME280;4798;41.574;23.734;2022-10-12T04:27:30;95864.88;;;15.70;100.00
9521;BME280;4798;41.574;23.734;2022-10-12T04:29:58;95857.28;;;15.77;100.00
9521;BME280;4798;41.574;23.734;2022-10-12T04:32:29;95865.31;;;15.96;100.00
9521;BME280;4798;41.574;23.734;2022-10-12T04:34:57;95854.44;;;16.24;100.00
9521;BME280;4798;41.574;23.734;2022-10-12T04:37:26;95859.22;;;16.27;100.00
9521;BME280;4798;41.574;23.734;2022-10-12T04:39:54;95837.16;;;16.03;100.00
9521;BME280;4798;41.574;23.734;2022-10-12T04:42:23;95872.69;;;16.04;100.00
9521;BME280;4798;41.574;23.734;2022-10-12T04:44:51;95881.03;;;15.60;100.00
9521;BME280;4798;41.574;23.734;2022-10-12T04:47:19;95873.03;;;15.97;100.00
9521;BME280;4798;41.574;23.734;2022-10-12T04:49:49;95845.03;;;15.76;100.00
9521;BME280;4798;41.574;23.734;2022-10-12T04:52:18;95873.00;;;15.83;100.00
9521;BME280;4798;41.574;23.734;2022-10-12T04:54:46;95883.94;;;15.82;100.00
9521;BME280;4798;41.574;23.734;2022-10-12T04:57:14;95890.38;;;15.62;100.00
9521;BME280;4798;41.574;23.734;2022-10-12T04:59:43;95885.41;;;15.93;100.00
9521;BME280;4798;41.574;23.734;2022-10-12T05:02:11;95896.53;;;16.00;100.00
9521;BME280;4798;41.574;23.734;2022-10-12T05:04:39;95886.34;;;16.02;100.00
9521;BME280;4798;41.574;23.734;2022-10-12T05:07:09;95894.88;;;16.23;100.00
9521;BME280;4798;41.574;23.734;2022-10-12T05:09:37;95899.06;;;16.10;100.00
9521;BME280;4798;41.574;23.734;2022-10-12T05:12:05;95896.03;;;16.35;100.00
9521;BME280;4798;41.574;23.734;2022-10-12T05:14:34;95890.44;;;16.50;100.00
9521;BME280;4798;41.574;23.734;2022-10-12T05:17:02;95889.50;;;16.60;100.00
9521;BME280;4798;41.574;23.734;2022-10-12T05:19:31;95903.53;;;16.52;100.00
9521;BME280;4798;41.574;23.734;2022-10-12T05:21:59;95901.44;;;16.30;100.00
9521;BME280;4798;41.574;23.734;2022-10-12T05:24:29;95903.03;;;16.31;100.00
9521;BME280;4798;41.574;23.734;2022-10-12T05:26:57;95907.94;;;16.43;100.00
9521;BME280;4798;41.574;23.734;2022-10-12T05:29:25;95911.25;;;16.35;100.00
9521;BME280;4798;41.574;23.734;2022-10-12T05:31:53;95911.41;;;16.43;100.00
9521;BME280;4798;41.574;23.734;2022-10-12T05:34:22;95913.75;;;16.31;100.00
9521;BME280;4798;41.574;23.734;2022-10-12T05:36:50;95909.91;;;16.19;100.00
9521;BME280;4798;41.574;23.734;2022-10-12T05:39:18;95920.66;;;16.32;100.00
9521;BME280;4798;41.574;23.734;2022-10-12T05:41:48;95919.44;;;16.62;100.00
9521;BME280;4798;41.574;23.734;2022-10-12T05:44:17;95919.38;;;16.48;100.00
9521;BME280;4798;41.574;23.734;2022-10-12T05:46:45;95921.25;;;16.29;100.00
9521;BME280;4798;41.574;23.734;2022-10-12T05:49:13;95924.94;;;16.33;100.00
9521;BME280;4798;41.574;23.734;2022-10-12T05:51:42;95932.50;;;16.45;100.00
9521;BME280;4798;41.574;23.734;2022-10-12T05:54:10;95932.03;;;16.43;100.00
9521;BME280;4798;41.574;23.734;2022-10-12T05:56:38;95936.16;;;16.54;100.00
9521;BME280;4798;41.574;23.734;2022-10-12T05:59:09;95947.72;;;16.68;100.00
9521;BME280;4798;41.574;23.734;2022-10-12T06:01:37;95936.47;;;16.85;100.00
9521;BME280;4798;41.574;23.734;2022-10-12T06:04:06;95932.50;;;16.82;100.00
9521;BME280;4798;41.574;23.734;2022-10-12T06:06:34;95939.50;;;16.97;100.00
9521;BME280;4798;41.574;23.734;2022-10-12T06:09:03;95853.88;;;16.27;100.00
9521;BME280;4798;41.574;23.734;2022-10-12T06:11:31;95941.75;;;16.90;100.00
9521;BME280;4798;41.574;23.734;2022-10-12T06:14:02;95950.78;;;16.62;100.00
9521;BME280;4798;41.574;23.734;2022-10-12T06:16:32;95952.69;;;16.37;100.00
9521;BME280;4798;41.574;23.734;2022-10-12T06:19:00;95952.91;;;16.22;100.00
9521;BME280;4798;41.574;23.734;2022-10-12T06:21:29;95953.66;;;16.65;100.00
9521;BME280;4798;41.574;23.734;2022-10-12T06:24:00;95955.34;;;16.75;100.00
9521;BME280;4798;41.574;23.734;2022-10-12T06:26:29;95961.97;;;16.64;100.00
9521;BME280;4798;41.574;23.734;2022-10-12T06:28:57;95959.41;;;16.72;100.00
9521;BME280;4798;41.574;23.734;2022-10-12T06:31:26;95876.72;;;16.38;100.00
9521;BME280;4798;41.574;23.734;2022-10-12T06:33:56;95955.81;;;16.95;100.00
9521;BME280;4798;41.574;23.734;2022-10-12T06:36:24;95965.38;;;17.47;100.00
9521;BME280;4798;41.574;23.734;2022-10-12T06:38:53;95965.66;;;17.32;100.00
9521;BME280;4798;41.574;23.734;2022-10-12T06:41:21;95966.84;;;16.94;100.00
9521;BME280;4798;41.574;23.734;2022-10-12T06:43:49;95974.97;;;16.89;100.00
9521;BME280;4798;41.574;23.734;2022-10-12T06:46:18;95972.66;;;16.82;100.00
9521;BME280;4798;41.574;23.734;2022-10-12T06:48:46;95981.22;;;16.66;100.00
9521;BME280;4798;41.574;23.734;2022-10-12T06:51:16;95933.41;;;16.40;100.00
9521;BME280;4798;41.574;23.734;2022-10-12T06:53:44;95975.84;;;16.84;100.00
9521;BME280;4798;41.574;23.734;2022-10-12T06:56:13;95929.56;;;16.65;100.00
9521;BME280;4798;41.574;23.734;2022-10-12T06:58:41;95976.03;;;16.88;100.00
9521;BME280;4798;41.574;23.734;2022-10-12T07:01:09;95978.13;;;17.23;100.00
9521;BME280;4798;41.574;23.734;2022-10-12T07:03:38;95978.75;;;17.34;100.00
9521;BME280;4798;41.574;23.734;2022-10-12T07:06:07;95985.00;;;17.29;100.00
9521;BME280;4798;41.574;23.734;2022-10-12T07:08:38;95989.13;;;17.67;100.00
9521;BME280;4798;41.574;23.734;2022-10-12T07:11:08;95986.16;;;17.55;100.00
9521;BME280;4798;41.574;23.734;2022-10-12T07:13:37;95989.06;;;16.94;100.00
9521;BME280;4798;41.574;23.734;2022-10-12T07:16:06;95982.41;;;17.24;100.00
9521;BME280;4798;41.574;23.734;2022-10-12T07:18:34;95991.31;;;17.65;100.00
9521;BME280;4798;41.574;23.734;2022-10-12T07:21:03;95986.66;;;17.57;100.00
9521;BME280;4798;41.574;23.734;2022-10-12T07:23:32;95988.78;;;17.42;100.00
9521;BME280;4798;41.574;23.734;2022-10-12T07:26:02;95991.53;;;17.55;100.00
9521;BME280;4798;41.574;23.734;2022-10-12T07:28:32;95986.63;;;17.71;100.00
9521;BME280;4798;41.574;23.734;2022-10-12T07:31:01;95984.56;;;17.54;100.00
9521;BME280;4798;41.574;23.734;2022-10-12T07:33:30;95982.56;;;17.14;100.00
9521;BME280;4798;41.574;23.734;2022-10-12T07:36:00;95988.81;;;17.09;100.00
9521;BME280;4798;41.574;23.734;2022-10-12T07:38:41;95988.72;;;17.14;100.00
9521;BME280;4798;41.574;23.734;2022-10-12T07:41:13;95970.59;;;17.39;100.00
9521;BME280;4798;41.574;23.734;2022-10-12T07:43:41;95986.19;;;17.37;100.00
9521;BME280;4798;41.574;23.734;2022-10-12T07:46:10;95987.53;;;17.53;100.00
9521;BME280;4798;41.574;23.734;2022-10-12T07:48:38;95981.69;;;17.78;100.00
9521;BME280;4798;41.574;23.734;2022-10-12T07:51:14;95986.25;;;17.64;100.00
9521;BME280;4798;41.574;23.734;2022-10-12T07:53:43;95981.19;;;17.62;100.00
9521;BME280;4798;41.574;23.734;2022-10-12T07:56:13;95983.47;;;18.10;100.00
9521;BME280;4798;41.574;23.734;2022-10-12T07:58:47;95987.16;;;18.14;100.00
9521;BME280;4798;41.574;23.734;2022-10-12T08:01:17;95987.63;;;18.02;100.00
9521;BME280;4798;41.574;23.734;2022-10-12T08:03:46;95988.47;;;18.52;100.00
9521;BME280;4798;41.574;23.734;2022-10-12T08:06:16;95981.56;;;18.10;100.00
9521;BME280;4798;41.574;23.734;2022-10-12T08:08:45;95993.50;;;18.18;100.00
9521;BME280;4798;41.574;23.734;2022-10-12T08:11:16;95919.03;;;17.88;100.00
9521;BME280;4798;41.574;23.734;2022-10-12T08:13:45;95990.06;;;18.39;100.00
9521;BME280;4798;41.574;23.734;2022-10-12T08:16:15;95991.03;;;18.57;100.00
9521;BME280;4798;41.574;23.734;2022-10-12T08:18:44;95982.97;;;19.37;100.00
9521;BME280;4798;41.574;23.734;2022-10-12T08:21:14;95984.44;;;19.52;100.00
9521;BME280;4798;41.574;23.734;2022-10-12T08:23:43;95987.47;;;19.59;100.00
9521;BME280;4798;41.574;23.734;2022-10-12T08:26:12;95979.31;;;19.73;100.00
9521;BME280;4798;41.574;23.734;2022-10-12T08:28:42;95980.25;;;19.68;100.00
9521;BME280;4798;41.574;23.734;2022-10-12T08:31:12;95972.47;;;19.58;99.43
9521;BME280;4798;41.574;23.734;2022-10-12T08:33:40;95984.78;;;19.06;100.00
9521;BME280;4798;41.574;23.734;2022-10-12T08:36:10;95982.19;;;19.23;100.00
9521;BME280;4798;41.574;23.734;2022-10-12T08:38:39;95983.00;;;19.24;100.00
9521;BME280;4798;41.574;23.734;2022-10-12T08:41:33;95988.13;;;19.34;100.00
9521;BME280;4798;41.574;23.734;2022-10-12T08:44:28;95966.88;;;19.85;98.88
9521;BME280;4798;41.574;23.734;2022-10-12T08:47:02;95977.22;;;20.17;97.23
9521;BME280;4798;41.574;23.734;2022-10-12T08:49:37;95976.84;;;19.85;100.00
9521;BME280;4798;41.574;23.734;2022-10-12T08:52:17;95967.16;;;19.75;96.78
9521;BME280;4798;41.574;23.734;2022-10-12T08:54:47;95975.16;;;20.14;96.90
9521;BME280;4798;41.574;23.734;2022-10-12T08:57:17;95965.91;;;20.46;95.37
9521;BME280;4798;41.574;23.734;2022-10-12T08:59:47;95966.84;;;20.42;96.43
9521;BME280;4798;41.574;23.734;2022-10-12T09:02:29;95966.94;;;20.19;93.11
9521;BME280;4798;41.574;23.734;2022-10-12T09:05:06;95969.41;;;20.64;90.52
9521;BME280;4798;41.574;23.734;2022-10-12T09:07:38;95976.50;;;19.78;93.23
9521;BME280;4798;41.574;23.734;2022-10-12T09:10:20;95933.84;;;20.19;93.83
9521;BME280;4798;41.574;23.734;2022-10-12T09:12:58;95967.69;;;19.94;92.58
9521;BME280;4798;41.574;23.734;2022-10-12T09:15:32;95964.03;;;19.90;92.39
9521;BME280;4798;41.574;23.734;2022-10-12T09:18:08;95964.75;;;19.74;93.45
9521;BME280;4798;41.574;23.734;2022-10-12T09:20:45;95958.31;;;20.31;89.39
9521;BME280;4798;41.574;23.734;2022-10-12T09:23:23;95956.56;;;20.52;88.32
9521;BME280;4798;41.574;23.734;2022-10-12T09:25:55;95948.00;;;20.67;89.64
9521;BME280;4798;41.574;23.734;2022-10-12T09:28:29;95949.13;;;20.58;88.88
9521;BME280;4798;41.574;23.734;2022-10-12T09:31:14;95958.13;;;21.13;86.01
9521;BME280;4798;41.574;23.734;2022-10-12T09:33:48;95950.06;;;21.05;83.04
9521;BME280;4798;41.574;23.734;2022-10-12T09:36:20;95948.09;;;21.31;83.56
9521;BME280;4798;41.574;23.734;2022-10-12T09:38:49;95941.56;;;21.40;80.73
9521;BME280;4798;41.574;23.734;2022-10-12T09:41:20;95923.09;;;20.87;83.60
9521;BME280;4798;41.574;23.734;2022-10-12T09:43:50;95940.22;;;21.17;80.73
9521;BME280;4798;41.574;23.734;2022-10-12T09:46:26;95943.09;;;21.12;79.80
9521;BME280;4798;41.574;23.734;2022-10-12T09:48:57;95941.06;;;21.85;79.96
9521;BME280;4798;41.574;23.734;2022-10-12T09:51:26;95938.47;;;21.68;78.58
9521;BME280;4798;41.574;23.734;2022-10-12T09:53:56;95944.34;;;21.15;79.13
9521;BME280;4798;41.574;23.734;2022-10-12T09:56:37;95897.41;;;21.53;77.91
9521;BME280;4798;41.574;23.734;2022-10-12T09:59:22;95930.13;;;21.52;76.61
9521;BME280;4798;41.574;23.734;2022-10-12T10:02:02;95932.13;;;21.17;77.32
9521;BME280;4798;41.574;23.734;2022-10-12T10:04:31;95929.13;;;21.10;77.54
9521;BME280;4798;41.574;23.734;2022-10-12T10:07:19;95918.31;;;21.19;76.96
9521;BME280;4798;41.574;23.734;2022-10-12T10:10:05;95914.13;;;20.41;79.28
9521;BME280;4798;41.574;23.734;2022-10-12T10:12:37;95921.88;;;20.42;79.00
9521;BME280;4798;41.574;23.734;2022-10-12T10:15:18;95908.56;;;20.71;77.42
9521;BME280;4798;41.574;23.734;2022-10-12T10:17:49;95914.38;;;21.08;75.82
9521;BME280;4798;41.574;23.734;2022-10-12T10:20:25;95915.94;;;21.64;73.77
9521;BME280;4798;41.574;23.734;2022-10-12T10:22:54;95917.75;;;22.39;70.89
9521;BME280;4798;41.574;23.734;2022-10-12T10:25:23;95906.00;;;22.55;71.43
9521;BME280;4798;41.574;23.734;2022-10-12T10:28:13;95912.03;;;21.82;71.20
9521;BME280;4798;41.574;23.734;2022-10-12T10:30:55;95895.47;;;22.21;71.97
9521;BME280;4798;41.574;23.734;2022-10-12T10:33:26;95906.13;;;21.88;71.75
9521;BME280;4798;41.574;23.734;2022-10-12T10:35:58;95909.69;;;22.30;71.00
9521;BME280;4798;41.574;23.734;2022-10-12T10:38:29;95901.25;;;22.94;67.92
9521;BME280;4798;41.574;23.734;2022-10-12T10:40:58;95904.88;;;22.15;68.58
9521;BME280;4798;41.574;23.734;2022-10-12T10:43:29;95896.41;;;22.25;68.22
9521;BME280;4798;41.574;23.734;2022-10-12T10:46:00;95893.19;;;22.85;66.91
9521;BME280;4798;41.574;23.734;2022-10-12T10:48:36;95891.75;;;22.88;67.65
9521;BME280;4798;41.574;23.734;2022-10-12T10:51:16;95890.00;;;22.50;65.28
9521;BME280;4798;41.574;23.734;2022-10-12T10:53:46;95886.94;;;22.52;65.94
9521;BME280;4798;41.574;23.734;2022-10-12T10:56:17;95889.72;;;21.73;66.84
9521;BME280;4798;41.574;23.734;2022-10-12T10:58:49;95873.84;;;21.71;68.57
9521;BME280;4798;41.574;23.734;2022-10-12T11:01:23;95888.53;;;21.53;67.57
9521;BME280;4798;41.574;23.734;2022-10-12T11:03:59;95878.84;;;21.14;67.51
9521;BME280;4798;41.574;23.734;2022-10-12T11:06:36;95882.91;;;21.67;67.37
9521;BME280;4798;41.574;23.734;2022-10-12T11:09:09;95876.09;;;21.98;65.84
9521;BME280;4798;41.574;23.734;2022-10-12T11:11:40;95862.47;;;21.95;67.19
9521;BME280;4798;41.574;23.734;2022-10-12T11:14:14;95870.78;;;21.52;67.65
9521;BME280;4798;41.574;23.734;2022-10-12T11:16:46;95873.41;;;21.23;67.51
9521;BME280;4798;41.574;23.734;2022-10-12T11:19:23;95801.19;;;21.37;68.08
9521;BME280;4798;41.574;23.734;2022-10-12T11:21:55;95865.69;;;21.50;67.70
9521;BME280;4798;41.574;23.734;2022-10-12T11:24:27;95858.69;;;21.87;67.37
9521;BME280;4798;41.574;23.734;2022-10-12T11:27:02;95860.09;;;21.93;66.19
9521;BME280;4798;41.574;23.734;2022-10-12T11:29:32;95846.47;;;21.90;66.67
9521;BME280;4798;41.574;23.734;2022-10-12T11:32:06;95851.72;;;22.07;65.83
9521;BME280;4798;41.574;23.734;2022-10-12T11:34:44;95855.00;;;21.92;65.24
9521;BME280;4798;41.574;23.734;2022-10-12T11:37:18;95849.81;;;22.07;65.56
9521;BME280;4798;41.574;23.734;2022-10-12T11:39:49;95850.44;;;21.55;66.21
9521;BME280;4798;41.574;23.734;2022-10-12T11:42:27;95842.25;;;21.72;65.01
9521;BME280;4798;41.574;23.734;2022-10-12T11:44:59;95845.22;;;21.79;64.70
9521;BME280;4798;41.574;23.734;2022-10-12T11:47:33;95841.31;;;22.38;64.19
9521;BME280;4798;41.574;23.734;2022-10-12T11:50:06;95840.66;;;22.41;63.95
9521;BME280;4798;41.574;23.734;2022-10-12T11:52:44;95847.59;;;22.30;64.97
9521;BME280;4798;41.574;23.734;2022-10-12T11:55:44;95837.56;;;22.51;63.34
9521;BME280;4798;41.574;23.734;2022-10-12T11:58:21;95836.94;;;21.84;64.67
9521;BME280;4798;41.574;23.734;2022-10-12T12:01:23;95832.16;;;21.89;64.50
9521;BME280;4798;41.574;23.734;2022-10-12T12:04:19;95835.66;;;21.90;64.01
9521;BME280;4798;41.574;23.734;2022-10-12T12:07:40;95828.38;;;21.82;64.56
9521;BME280;4798;41.574;23.734;2022-10-12T12:13:25;95814.13;;;22.76;61.81
9521;BME280;4798;41.574;23.734;2022-10-12T12:19:12;95817.19;;;22.54;62.44
9521;BME280;4798;41.574;23.734;2022-10-12T12:22:15;95819.84;;;22.74;61.58
9521;BME280;4798;41.574;23.734;2022-10-12T12:24:54;95817.50;;;22.73;61.35
9521;BME280;4798;41.574;23.734;2022-10-12T12:27:29;95824.19;;;22.34;61.29
9521;BME280;4798;41.574;23.734;2022-10-12T12:29:59;95766.84;;;21.75;62.18
9521;BME280;4798;41.574;23.734;2022-10-12T12:32:41;95821.97;;;22.16;61.62
9521;BME280;4798;41.574;23.734;2022-10-12T12:35:19;95771.09;;;21.76;61.18
9521;BME280;4798;41.574;23.734;2022-10-12T12:40:28;95814.31;;;22.38;60.53
9521;BME280;4798;41.574;23.734;2022-10-12T12:43:17;95816.16;;;22.26;61.33
9521;BME280;4798;41.574;23.734;2022-10-12T12:45:54;95823.72;;;21.91;62.18
9521;BME280;4798;41.574;23.734;2022-10-12T12:51:39;95816.44;;;22.12;63.17
9521;BME280;4798;41.574;23.734;2022-10-12T12:54:19;95819.97;;;22.25;61.84
9521;BME280;4798;41.574;23.734;2022-10-12T12:57:02;95817.50;;;21.70;63.13
9521;BME280;4798;41.574;23.734;2022-10-12T13:09:14;95825.72;;;21.52;66.64
9521;BME280;4798;41.574;23.734;2022-10-12T13:15:20;95816.28;;;21.59;65.41
9521;BME280;4798;41.574;23.734;2022-10-12T13:18:34;95822.50;;;21.30;66.80
9521;BME280;4798;41.574;23.734;2022-10-12T13:21:21;95664.44;;;20.50;66.37
9521;BME280;4798;41.574;23.734;2022-10-12T13:23:54;95823.63;;;21.20;65.20
9521;BME280;4798;41.574;23.734;2022-10-12T13:26:27;95833.31;;;21.50;65.26
9521;BME280;4798;41.574;23.734;2022-10-12T13:28:58;95828.88;;;21.55;65.12
9521;BME280;4798;41.574;23.734;2022-10-12T13:31:35;95826.03;;;21.51;64.90
9521;BME280;4798;41.574;23.734;2022-10-12T13:34:10;95834.16;;;20.96;66.18
9521;BME280;4798;41.574;23.734;2022-10-12T13:36:49;95836.88;;;20.96;65.89
9521;BME280;4798;41.574;23.734;2022-10-12T13:39:20;95836.69;;;20.92;65.87
9521;BME280;4798;41.574;23.734;2022-10-12T13:41:51;95834.00;;;21.10;65.71
9521;BME280;4798;41.574;23.734;2022-10-12T13:44:22;95812.09;;;21.11;65.67
9521;BME280;4798;41.574;23.734;2022-10-12T13:46:54;95832.34;;;21.26;66.53
9521;BME280;4798;41.574;23.734;2022-10-12T13:49:26;95833.56;;;21.37;65.13
9521;BME280;4798;41.574;23.734;2022-10-12T13:51:57;95835.53;;;21.19;66.67
9521;BME280;4798;41.574;23.734;2022-10-12T13:54:33;95831.53;;;21.25;66.77
9521;BME280;4798;41.574;23.734;2022-10-12T13:57:04;95830.94;;;21.20;67.06
9521;BME280;4798;41.574;23.734;2022-10-12T13:59:36;95840.56;;;21.29;67.14
9521;BME280;4798;41.574;23.734;2022-10-12T14:02:17;95834.63;;;20.98;66.86